Pagrindinis puslapis
METAR-TAF:

METAR-TAF

Oro uostai :

Dalkahuė, Čilė

platuma: 42-20-25S, ilguma: 073-42-56W, Aukštis: 161 m

Dabartinis oras

Ataskaita buvo paskelbta 1 valandą ir 3 minutes, ne 17:00 UTC
Vėjas 22 kt iš Šiaurės
Temperatūra 14°C
Drėgmė 94%
Slėgis 1011 hPa
Matomumas: 3000 m
Su prošvaistėmis ne aukštis 400 ft
Su prošvaistėmis ne aukštis 800 ft
lietus,

METAR: SCPQ 271700Z 35022KT 3000 -SHRA BKN004 BKN008 14/13 Q1011

Laikas: 15:03 (18:03 UTC)


TAF: trūkstamas

Orai ataskaitas ir orų prognozės (METAR, TAF).

turimą stotys yra geltonos ir raudonos taškus žemėlapyje.

Perkelti pele per norėdami pamatyti stoties vardą.

Tada spustelėkite, norėdami matyti oro stebėjimo ir prognozės.

Norėdami pakeisti žemėlapį: spustelėkite ant žalios mygtukų su juodo kryžiaus žemyn,; žalią mygtuką su brūkšneliu, jei norite nutolinti; arba žalių rodyklių gretimoms žemėlapius.


METAR-TAF: